Time;durP1;ratioP1;P1;durP2;ratioP2;P2;SDS_P1;SDS_P2;PMS_P1;PMS_P2;Temp;Humidity;BMP_temperature;BMP_pressure;BME280_temperature;BME280_humidity;BME280_pressure;Samples;Min_cycle;Max_cycle;Signal;HPM_P1;HPM_P2
2023/01/15 00:00:04;;;;;;;4.50;1.13;;;10.40;1.00;;;;;;4825698;29;20839;-71
2023/01/15 00:02:34;;;;;;;0.50;0.10;;;10.50;1.00;;;;;;4825687;29;20469;-71
2023/01/15 00:05:02;;;;;;;0.50;0.10;;;10.40;1.00;;;;;;4819854;29;21035;-72
2023/01/15 00:07:30;;;;;;;0.50;0.10;;;10.50;1.00;;;;;;4807388;29;20522;-72
2023/01/15 00:09:58;;;;;;;0.50;0.23;;;10.50;1.00;;;;;;4824276;29;20592;-70
2023/01/15 00:12:26;;;;;;;0.67;0.30;;;10.50;1.00;;;;;;4816074;29;20497;-72
2023/01/15 00:14:56;;;;;;;0.50;0.10;;;10.50;1.00;;;;;;4825704;29;20465;-71
2023/01/15 00:17:24;;;;;;;0.57;0.27;;;10.50;1.00;;;;;;4821711;29;20546;-72
2023/01/15 00:19:53;;;;;;;0.50;0.10;;;10.50;1.00;;;;;;4810560;29;20465;-72
2023/01/15 00:22:21;;;;;;;0.50;0.10;;;10.40;1.00;;;;;;4816355;29;20462;-71
2023/01/15 00:27:43;;;;;;;0.50;0.20;;;10.40;1.00;;;;;;4817639;29;20515;-71
2023/01/15 00:30:13;;;;;;;0.80;0.40;;;10.40;1.00;;;;;;4830853;29;20448;-71
2023/01/15 00:32:42;;;;;;;0.50;0.10;;;10.40;1.00;;;;;;4832172;29;20445;-70
2023/01/15 00:35:14;;;;;;;0.50;0.10;;;10.40;1.00;;;;;;4830818;29;20460;-71
2023/01/15 00:37:42;;;;;;;0.50;0.17;;;10.40;1.00;;;;;;4814812;29;20467;-71
2023/01/15 00:40:11;;;;;;;0.50;0.20;;;10.40;1.00;;;;;;4813113;29;20465;-71
2023/01/15 00:42:39;;;;;;;1.17;0.40;;;10.40;1.00;;;;;;4809383;29;20485;-70
2023/01/15 00:45:09;;;;;;;0.50;0.20;;;10.40;1.00;;;;;;4810698;29;20954;-72
2023/01/15 00:47:38;;;;;;;0.50;0.10;;;10.40;1.00;;;;;;4828313;29;20980;-71
2023/01/15 00:50:09;;;;;;;0.70;0.60;;;10.50;1.00;;;;;;4827701;29;20953;-72
2023/01/15 00:52:39;;;;;;;0.50;0.20;;;10.40;1.00;;;;;;4826985;29;20468;-71
2023/01/15 00:55:08;;;;;;;0.50;0.10;;;10.40;1.00;;;;;;4828219;29;20960;-71
2023/01/15 00:57:36;;;;;;;2.00;1.13;;;;;;;;;;4822310;29;20485;-70
2023/01/15 05:00:36;;;;;;;0.50;0.10;;;7.70;99.90;;;;;;5800020;23;20375;-70
2023/01/15 05:03:04;;;;;;;0.50;0.10;;;7.60;99.90;;;;;;4821756;29;20465;-71
2023/01/15 05:05:32;;;;;;;0.50;0.10;;;7.60;99.90;;;;;;4828594;29;20473;-72
2023/01/15 05:08:00;;;;;;;0.50;0.10;;;7.50;99.90;;;;;;4832459;29;20588;-72
2023/01/15 05:10:28;;;;;;;0.50;0.10;;;7.40;99.90;;;;;;4831396;29;20533;-73
2023/01/15 05:12:56;;;;;;;0.50;0.10;;;7.40;99.90;;;;;;4842002;29;20458;-69
2023/01/15 05:15:24;;;;;;;0.50;0.10;;;7.40;99.90;;;;;;4842932;23;20511;-77
2023/01/15 05:17:53;;;;;;;0.50;0.10;;;7.40;99.90;;;;;;4827412;29;20441;-74
2023/01/15 05:20:21;;;;;;;0.50;0.10;;;7.40;99.90;;;;;;4830848;29;20441;-76
2023/01/15 05:22:50;;;;;;;0.50;0.10;;;7.40;99.90;;;;;;4842709;29;20669;-74
2023/01/15 05:25:17;;;;;;;0.50;0.10;;;7.30;99.90;;;;;;4842123;29;20987;-77
2023/01/15 05:27:45;;;;;;;0.50;0.10;;;7.20;99.90;;;;;;4841873;29;20492;-74
2023/01/15 05:30:14;;;;;;;0.50;0.10;;;7.20;99.90;;;;;;4842243;29;20468;-75
2023/01/15 05:32:41;;;;;;;0.50;0.10;;;7.10;99.90;;;;;;4843275;29;20452;-76
2023/01/15 05:35:11;;;;;;;0.50;0.10;;;7.00;99.90;;;;;;4841439;29;20957;-76
2023/01/15 05:37:39;;;;;;;0.50;0.10;;;7.00;99.90;;;;;;4841191;29;20460;-77
2023/01/15 05:40:08;;;;;;;0.50;0.10;;;7.00;99.90;;;;;;4842487;29;20529;-77
2023/01/15 05:42:36;;;;;;;0.50;0.10;;;6.90;99.90;;;;;;4838284;29;20465;-74
2023/01/15 05:45:04;;;;;;;0.50;0.10;;;6.90;99.90;;;;;;4823977;29;20477;-74
2023/01/15 05:47:34;;;;;;;0.50;0.10;;;6.80;99.90;;;;;;4824845;29;20571;-75
2023/01/15 05:50:02;;;;;;;0.50;0.10;;;6.80;99.90;;;;;;4828573;29;20460;-73
2023/01/15 05:52:31;;;;;;;0.50;0.10;;;6.80;99.90;;;;;;4841458;29;20516;-74
2023/01/15 05:54:59;;;;;;;0.50;0.10;;;6.80;99.90;;;;;;4841708;29;20472;-79
2023/01/15 05:57:27;;;;;;;0.50;0.10;;;6.70;99.90;;;;;;4843676;29;20449;-78
2023/01/15 05:59:55;;;;;;;0.50;0.10;;;6.70;99.90;;;;;;4846773;29;20830;-76
2023/01/15 06:02:23;;;;;;;0.50;0.10;;;6.70;99.90;;;;;;4845200;29;20456;-75
2023/01/15 06:04:50;;;;;;;0.50;0.10;;;6.70;99.90;;;;;;4844991;29;20523;-74
2023/01/15 06:07:18;;;;;;;0.50;0.10;;;6.70;99.90;;;;;;4842069;29;20448;-75
2023/01/15 06:09:47;;;;;;;0.50;0.30;;;6.70;99.90;;;;;;4843087;29;20479;-75
2023/01/15 06:12:15;;;;;;;0.50;0.10;;;6.70;99.90;;;;;;4843629;29;20956;-77
2023/01/15 06:14:43;;;;;;;0.50;0.10;;;6.60;99.90;;;;;;4846596;29;20483;-74
2023/01/15 06:17:11;;;;;;;0.50;0.10;;;;;;;;;;4847318;29;20452;-76
2023/01/15 06:19:39;;;;;;;0.50;0.20;;;6.50;99.90;;;;;;4850860;29;20455;-75
2023/01/15 06:22:07;;;;;;;0.50;0.10;;;6.60;99.90;;;;;;4851147;29;20452;-75
2023/01/15 06:24:37;;;;;;;0.50;0.10;;;6.60;99.90;;;;;;4850278;29;20832;-75
2023/01/15 06:27:06;;;;;;;0.50;0.10;;;6.60;99.90;;;;;;4849467;29;20509;-76
2023/01/15 06:29:34;;;;;;;0.50;0.10;;;6.50;99.90;;;;;;4844287;29;20513;-76
2023/01/15 06:32:02;;;;;;;0.50;0.10;;;6.60;99.90;;;;;;4828582;29;20812;-76
2023/01/15 06:34:30;;;;;;;0.50;0.10;;;6.60;99.90;;;;;;4828458;29;20477;-73
2023/01/15 06:36:58;;;;;;;0.50;0.10;;;6.70;99.90;;;;;;4832564;29;20449;-76
2023/01/15 06:39:26;;;;;;;0.50;0.10;;;6.60;99.90;;;;;;4812811;29;20448;-75
2023/01/15 06:47:27;;;;;;;0.50;0.10;;;6.40;99.90;;;;;;4807858;29;20457;-76
2023/01/15 06:49:57;;;;;;;0.50;0.10;;;6.40;99.90;;;;;;4810148;29;20486;-75
2023/01/15 06:52:27;;;;;;;0.50;0.10;;;6.40;99.90;;;;;;4811087;29;20481;-78
2023/01/15 06:54:55;;;;;;;0.50;0.10;;;6.30;99.90;;;;;;4812327;29;20492;-77
2023/01/15 06:57:23;;;;;;;0.50;0.10;;;6.30;99.90;;;;;;4817634;29;20475;-75
2023/01/15 06:59:52;;;;;;;0.50;0.20;;;6.20;99.90;;;;;;4828809;29;20476;-75
2023/01/15 07:02:21;;;;;;;0.50;0.10;;;6.20;99.90;;;;;;4828815;29;20484;-79
2023/01/15 07:04:49;;;;;;;0.50;0.10;;;6.20;99.90;;;;;;4818923;29;20572;-73
2023/01/15 07:07:18;;;;;;;0.50;0.10;;;6.10;99.90;;;;;;4842105;29;20460;-75
2023/01/15 07:09:45;;;;;;;0.50;0.10;;;6.00;99.90;;;;;;4825590;29;20489;-77
2023/01/15 07:12:13;;;;;;;0.50;0.10;;;6.00;99.90;;;;;;4825837;29;20464;-76
2023/01/15 07:14:41;;;;;;;108.30;10.90;;;6.00;99.90;;;;;;4825422;29;21193;-74
2023/01/15 07:17:10;;;;;;;0.50;0.10;;;6.00;99.90;;;;;;4826964;29;20507;-75
2023/01/15 07:19:39;;;;;;;0.50;0.10;;;6.00;99.90;;;;;;4827226;29;20457;-74
2023/01/15 07:22:07;;;;;;;0.50;0.10;;;6.10;99.90;;;;;;4826631;29;20450;-75
2023/01/15 07:24:35;;;;;;;0.80;0.53;;;6.10;99.90;;;;;;4826134;29;20827;-78
2023/01/15 07:27:03;;;;;;;0.50;0.10;;;6.00;99.90;;;;;;4809670;29;20844;-74
2023/01/15 07:29:31;;;;;;;0.50;0.10;;;5.90;99.90;;;;;;4825219;29;20718;-74
2023/01/15 07:31:59;;;;;;;0.50;0.10;;;6.00;99.90;;;;;;4843654;29;20456;-74
2023/01/15 07:34:28;;;;;;;0.50;0.10;;;6.00;99.90;;;;;;4843913;29;20485;-74
2023/01/15 07:36:56;;;;;;;0.60;0.30;;;6.00;99.90;;;;;;4843393;29;20459;-74
2023/01/15 07:39:24;;;;;;;0.50;0.10;;;6.00;99.90;;;;;;4843647;29;20451;-76
2023/01/15 07:50:10;;;;;;;0.50;0.10;;;6.10;1.00;;;;;;4824281;29;20489;-77
2023/01/15 07:52:38;;;;;;;0.50;0.20;;;6.00;1.00;;;;;;4838806;29;20822;-78
2023/01/15 07:55:07;;;;;;;0.50;0.30;;;6.00;1.00;;;;;;4842274;29;20552;-74
2023/01/15 07:57:36;;;;;;;0.70;0.33;;;6.00;1.00;;;;;;4841413;29;20476;-75
2023/01/15 08:00:05;;;;;;;0.50;0.10;;;6.10;1.00;;;;;;4828257;29;20955;-76
2023/01/15 08:02:33;;;;;;;0.50;0.10;;;6.10;1.00;;;;;;4835198;29;20448;-76
2023/01/15 08:05:01;;;;;;;0.70;0.60;;;6.00;1.00;;;;;;4846019;29;20475;-75
2023/01/15 08:07:30;;;;;;;0.50;0.10;;;6.10;1.00;;;;;;4845407;29;20451;-74
2023/01/15 08:09:58;;;;;;;0.50;0.10;;;6.20;1.00;;;;;;4842875;29;20499;-74
2023/01/15 08:15:15;;;;;;;0.50;0.10;;;6.30;1.00;;;;;;4841721;29;20491;-76
2023/01/15 08:17:45;;;;;;;0.50;0.10;;;6.30;1.00;;;;;;4842128;29;20810;-76
2023/01/15 08:20:14;;;;;;;0.50;0.10;;;6.30;1.00;;;;;;4842044;29;20456;-75
2023/01/15 08:22:44;;;;;;;0.50;0.10;;;6.30;1.00;;;;;;4841727;29;20463;-75
2023/01/15 08:25:16;;;;;;;0.60;0.40;;;6.20;1.00;;;;;;4841881;29;20479;-75
2023/01/15 08:27:45;;;;;;;0.50;0.10;;;6.20;1.00;;;;;;4842524;29;20453;-76
2023/01/15 08:30:14;;;;;;;0.60;0.20;;;6.10;1.00;;;;;;4832007;29;20993;-75
2023/01/15 08:32:42;;;;;;;0.50;0.10;;;6.20;1.00;;;;;;4823878;29;20965;-74
2023/01/15 08:35:11;;;;;;;0.50;0.20;;;6.20;1.00;;;;;;4823797;29;20465;-76
2023/01/15 08:37:40;;;;;;;0.50;0.10;;;6.10;1.00;;;;;;4808083;29;21106;-78
2023/01/15 08:40:11;;;;;;;0.50;0.10;;;6.20;1.00;;;;;;4823361;29;20515;-77
2023/01/15 08:42:39;;;;;;;0.50;0.10;;;6.20;1.00;;;;;;4824454;29;20472;-76
2023/01/15 08:45:08;;;;;;;0.50;0.10;;;6.20;1.00;;;;;;4824381;29;20484;-75
2023/01/15 08:47:36;;;;;;;0.50;0.20;;;6.10;1.00;;;;;;4826734;29;20449;-75
2023/01/15 08:50:06;;;;;;;0.50;0.20;;;6.10;1.00;;;;;;4824467;29;20574;-74
2023/01/15 08:52:34;;;;;;;0.70;0.20;;;6.10;1.00;;;;;;4824031;29;20437;-77
2023/01/15 08:55:01;;;;;;;0.50;0.10;;;6.10;1.00;;;;;;4823438;29;20989;-74
2023/01/15 08:57:31;;;;;;;0.50;0.10;;;6.00;1.00;;;;;;4823512;29;20462;-72
2023/01/15 08:59:58;;;;;;;0.50;0.10;;;6.00;1.00;;;;;;4823517;29;20454;-73
2023/01/15 09:02:28;;;;;;;0.87;0.20;;;6.00;1.00;;;;;;4823932;29;20956;-75
2023/01/15 09:04:56;;;;;;;0.50;0.10;;;6.00;1.00;;;;;;4823548;29;20469;-76
2023/01/15 09:07:24;;;;;;;0.57;0.17;;;6.00;1.00;;;;;;4839426;29;20475;-72
2023/01/15 09:09:53;;;;;;;0.50;0.20;;;6.00;1.00;;;;;;4830909;29;21011;-75
2023/01/15 09:12:23;;;;;;;0.50;0.10;;;6.00;1.00;;;;;;4823303;29;20462;-72
2023/01/15 09:14:52;;;;;;;0.77;0.50;;;6.00;1.00;;;;;;4823968;29;20521;-74
2023/01/15 09:17:27;;;;;;;0.50;0.10;;;6.00;1.00;;;;;;4823594;29;20476;-74
2023/01/15 09:19:55;;;;;;;0.50;0.20;;;6.00;1.00;;;;;;4827215;29;20444;-74
2023/01/15 09:22:24;;;;;;;0.50;0.20;;;6.00;1.00;;;;;;4831343;29;20468;-74
2023/01/15 09:24:51;;;;;;;0.63;0.40;;;5.90;1.00;;;;;;4824213;29;20520;-73
2023/01/15 09:27:19;;;;;;;0.50;0.10;;;6.00;1.00;;;;;;4831385;29;20531;-73
2023/01/15 09:29:47;;;;;;;0.60;0.20;;;6.00;1.00;;;;;;4833066;29;20511;-72
2023/01/15 09:32:16;;;;;;;0.50;0.20;;;6.00;1.00;;;;;;4837276;29;20469;-74
2023/01/15 09:34:44;;;;;;;0.50;0.10;;;6.10;1.00;;;;;;4823642;29;20829;-72
2023/01/15 09:37:12;;;;;;;0.50;0.10;;;6.10;1.00;;;;;;4823498;29;20472;-74
2023/01/15 09:39:40;;;;;;;0.50;0.10;;;6.10;1.00;;;;;;4823815;29;20554;-73
2023/01/15 09:42:23;;;;;;;0.50;0.20;;;6.20;1.00;;;;;;4823082;29;20470;-73
2023/01/15 09:45:24;;;;;;;0.50;0.10;;;6.20;1.00;;;;;;4822952;29;20477;-73
2023/01/15 09:48:11;;;;;;;0.50;0.17;;;6.20;1.00;;;;;;4823786;29;20980;-72
2023/01/15 09:50:49;;;;;;;0.50;0.10;;;6.10;1.00;;;;;;4823537;29;20536;-75
2023/01/15 09:53:46;;;;;;;0.50;0.20;;;6.10;1.00;;;;;;4824239;29;20452;-71
2023/01/15 09:56:21;;;;;;;0.50;0.10;;;6.10;1.00;;;;;;4825905;29;20461;-72
2023/01/15 09:58:50;;;;;;;0.50;0.20;;;6.00;1.00;;;;;;4843893;29;20435;-72
2023/01/15 10:01:24;;;;;;;0.50;0.10;;;6.10;1.00;;;;;;4834594;29;20509;-73
2023/01/15 10:03:59;;;;;;;0.50;0.10;;;6.10;1.00;;;;;;4828421;29;20828;-72
2023/01/15 10:06:32;;;;;;;0.50;0.10;;;6.10;1.00;;;;;;4829516;29;20483;-72
2023/01/15 10:09:06;;;;;;;0.50;0.10;;;6.20;1.00;;;;;;4837226;29;20453;-71
2023/01/15 10:14:39;;;;;;;0.50;0.10;;;6.20;1.00;;;;;;4840939;29;20471;-72
2023/01/15 10:17:18;;;;;;;0.50;0.30;;;6.30;1.00;;;;;;4829261;29;20461;-72
2023/01/15 10:19:47;;;;;;;0.50;0.10;;;6.30;99.90;;;;;;4827070;29;20796;-74
2023/01/15 10:22:23;;;;;;;0.50;0.10;;;6.30;99.90;;;;;;4826999;29;20449;-72
2023/01/15 10:24:56;;;;;;;0.50;0.10;;;6.30;99.90;;;;;;4826953;29;20472;-71
2023/01/15 10:27:27;;;;;;;0.70;0.30;;;6.30;99.90;;;;;;4827156;29;20449;-74
2023/01/15 10:30:01;;;;;;;0.50;0.10;;;6.30;99.90;;;;;;4826374;29;20493;-74
2023/01/15 10:32:41;;;;;;;0.60;0.30;;;6.30;99.90;;;;;;4828129;29;20517;-72
2023/01/15 10:35:33;;;;;;;0.50;0.10;;;6.40;99.90;;;;;;4826925;29;20486;-72
2023/01/15 10:38:11;;;;;;;0.60;0.30;;;6.40;99.90;;;;;;4838412;29;20455;-72
2023/01/15 10:40:54;;;;;;;0.50;0.10;;;6.40;99.90;;;;;;4843589;29;20460;-72
2023/01/15 10:43:28;;;;;;;0.50;0.10;;;6.50;99.90;;;;;;4852726;29;20472;-73
2023/01/15 10:45:58;;;;;;;0.50;0.10;;;6.50;99.90;;;;;;4853297;29;20476;-72
2023/01/15 10:48:31;;;;;;;0.50;0.10;;;6.60;99.90;;;;;;4836493;29;20464;-70
2023/01/15 10:51:03;;;;;;;0.50;0.20;;;6.60;99.90;;;;;;4813553;29;20485;-72
2023/01/15 10:53:38;;;;;;;0.60;0.37;;;6.50;99.90;;;;;;4842348;29;20458;-74
2023/01/15 10:56:12;;;;;;;0.50;0.10;;;6.50;99.90;;;;;;4826697;29;20945;-71
2023/01/15 10:58:46;;;;;;;0.50;0.10;;;6.50;99.90;;;;;;4839208;29;20453;-72
2023/01/15 11:01:18;;;;;;;0.50;0.20;;;6.50;99.90;;;;;;4837018;29;20457;-73
2023/01/15 11:03:46;;;;;;;0.50;0.10;;;6.40;99.90;;;;;;4825858;29;20544;-72
2023/01/15 11:06:18;;;;;;;0.50;0.30;;;6.50;99.90;;;;;;4824700;29;20476;-71
2023/01/15 11:08:50;;;;;;;0.50;0.10;;;6.50;99.90;;;;;;4839812;29;20453;-71
2023/01/15 11:19:44;;;;;;;0.60;0.20;;;6.70;99.90;;;;;;4830692;29;20473;-73
2023/01/15 11:22:16;;;;;;;0.50;0.10;;;6.70;99.90;;;;;;4827065;29;20456;-71
2023/01/15 11:24:49;;;;;;;0.60;0.20;;;6.70;99.90;;;;;;4833194;29;20478;-71
2023/01/15 11:27:20;;;;;;;0.50;0.20;;;6.70;99.90;;;;;;4811562;29;20477;-70
2023/01/15 11:29:53;;;;;;;0.50;0.10;;;6.70;99.90;;;;;;4807667;29;20873;-71
2023/01/15 11:32:28;;;;;;;0.60;0.40;;;6.60;99.90;;;;;;4814096;29;20490;-70
2023/01/15 11:34:57;;;;;;;1.00;0.30;;;6.60;99.90;;;;;;4823834;29;20499;-73
2023/01/15 11:37:27;;;;;;;1.40;0.97;;;6.60;99.90;;;;;;4824984;29;20458;-71
2023/01/15 11:39:59;;;;;;;0.50;0.20;;;6.60;99.90;;;;;;4823240;29;20463;-70
2023/01/15 11:50:53;;;;;;;0.50;0.17;;;6.50;99.90;;;;;;4807964;29;20495;-70
2023/01/15 11:53:25;;;;;;;1.03;0.40;;;6.50;99.90;;;;;;4816714;29;20981;-71
2023/01/15 11:55:58;;;;;;;0.50;0.10;;;6.50;99.90;;;;;;4803219;29;20488;-72
2023/01/15 11:58:27;;;;;;;0.50;0.10;;;6.40;99.90;;;;;;4802116;29;20473;-71
2023/01/15 12:00:56;;;;;;;0.50;0.10;;;6.50;99.90;;;;;;4810530;29;20490;-72
2023/01/15 12:03:27;;;;;;;0.50;0.20;;;6.50;99.90;;;;;;4815850;29;21325;-71
2023/01/15 12:05:59;;;;;;;0.50;0.10;;;6.60;99.90;;;;;;4810956;29;20984;-70
2023/01/15 12:08:43;;;;;;;0.50;0.20;;;6.50;99.90;;;;;;4818136;29;20797;-72
2023/01/15 12:11:22;;;;;;;0.50;0.10;;;6.60;99.90;;;;;;4823665;29;20554;-70
2023/01/15 12:14:09;;;;;;;0.50;0.10;;;6.60;99.90;;;;;;4819771;29;20473;-72
2023/01/15 12:16:45;;;;;;;0.60;0.20;;;6.70;99.90;;;;;;4818769;29;20874;-71
2023/01/15 12:19:21;;;;;;;0.50;0.10;;;6.70;99.90;;;;;;4809913;29;20450;-71
2023/01/15 12:22:19;;;;;;;0.60;0.37;;;6.80;99.90;;;;;;4804906;29;20454;-71
2023/01/15 12:25:17;;;;;;;0.50;0.10;;;6.90;99.90;;;;;;4810486;29;20508;-69
2023/01/15 12:28:02;;;;;;;1.83;0.77;;;7.00;99.90;;;;;;4822064;29;20457;-72
2023/01/15 12:30:39;;;;;;;0.50;0.10;;;7.00;99.90;;;;;;4788050;30;20470;-71
2023/01/15 12:33:19;;;;;;;0.50;0.20;;;7.00;99.90;;;;;;4795155;29;20462;-71
2023/01/15 12:35:55;;;;;;;0.90;0.63;;;7.10;99.90;;;;;;4814270;29;20561;-72
2023/01/15 12:38:36;;;;;;;0.60;0.20;;;7.10;99.90;;;;;;4811567;29;20470;-68
2023/01/15 12:41:10;;;;;;;1.07;0.97;;;7.00;99.90;;;;;;4805088;29;20450;-72
2023/01/15 12:46:28;;;;;;;0.50;0.10;;;7.10;99.90;;;;;;4804273;29;20462;-72
2023/01/15 12:49:02;;;;;;;0.50;0.10;;;7.00;99.90;;;;;;4804278;29;20455;-71
2023/01/15 12:51:35;;;;;;;1.47;0.40;;;7.10;99.90;;;;;;4803495;29;20680;-71
2023/01/15 12:54:07;;;;;;;0.50;0.20;;;7.20;99.90;;;;;;4803228;29;20473;-71
2023/01/15 12:56:50;;;;;;;0.60;0.20;;;7.20;99.90;;;;;;4808234;29;20562;-73
2023/01/15 12:59:22;;;;;;;0.50;0.20;;;7.20;99.90;;;;;;4810383;29;20453;-72
2023/01/15 13:01:57;;;;;;;0.70;0.40;;;7.40;99.90;;;;;;4802247;29;20443;-72
2023/01/15 13:04:32;;;;;;;0.53;0.20;;;7.40;99.90;;;;;;4804567;29;20453;-71
2023/01/15 13:07:06;;;;;;;0.50;0.10;;;7.40;99.90;;;;;;4800030;29;20458;-71
2023/01/15 13:09:43;;;;;;;1.20;0.70;;;7.40;99.90;;;;;;4813666;29;20460;-73
2023/01/15 13:12:17;;;;;;;1.53;1.23;;;7.50;99.90;;;;;;4808086;29;20569;-71
2023/01/15 13:14:45;;;;;;;0.50;0.23;;;7.40;99.90;;;;;;4811122;29;20470;-71
2023/01/15 13:17:23;;;;;;;0.50;0.10;;;7.40;99.90;;;;;;4809489;29;20457;-71
2023/01/15 13:20:09;;;;;;;0.50;0.10;;;7.50;99.90;;;;;;4808761;29;20518;-71
2023/01/15 13:22:47;;;;;;;0.50;0.10;;;7.60;99.90;;;;;;4804763;29;20478;-71
2023/01/15 13:25:42;;;;;;;1.20;0.53;;;7.60;99.90;;;;;;4802953;29;20485;-70
2023/01/15 13:28:25;;;;;;;3.43;0.50;;;7.50;99.90;;;;;;4805481;29;20450;-71
2023/01/15 13:31:05;;;;;;;0.50;0.20;;;7.50;99.90;;;;;;4807560;29;20450;-71
2023/01/15 13:33:39;;;;;;;1.67;0.43;;;7.50;99.90;;;;;;4808138;29;20511;-73
2023/01/15 13:36:13;;;;;;;0.50;0.10;;;7.40;99.90;;;;;;4806373;29;20466;-71
2023/01/15 13:38:44;;;;;;;0.50;0.10;;;7.40;99.90;;;;;;4807560;29;20450;-71
2023/01/15 13:42:30;;;;;;;5.93;0.80;;;7.50;99.90;;;;;;4808965;29;20465;-71
2023/01/15 13:44:16;;;;;;;0.60;0.40;;;7.60;99.90;;;;;;4807725;29;20458;-72
2023/01/15 13:46:45;;;;;;;0.50;0.10;;;7.60;99.90;;;;;;4808347;29;20466;-72
2023/01/15 13:49:20;;;;;;;0.57;0.20;;;7.60;99.90;;;;;;4807790;29;20899;-71
2023/01/15 13:51:49;;;;;;;9.20;0.63;;;7.70;99.90;;;;;;4807036;29;20492;-72
2023/01/15 13:54:21;;;;;;;0.60;0.40;;;7.80;99.90;;;;;;4818670;29;20478;-70
2023/01/15 13:56:49;;;;;;;0.50;0.10;;;7.80;99.90;;;;;;4825823;29;20455;-69
2023/01/15 13:59:39;;;;;;;0.50;0.10;;;7.90;99.90;;;;;;4825237;29;20514;-71
2023/01/15 14:02:27;;;;;;;0.60;0.40;;;7.90;99.90;;;;;;4825571;29;20445;-73
2023/01/15 14:04:56;;;;;;;0.50;0.10;;;8.00;99.90;;;;;;4825326;29;20841;-73
2023/01/15 14:07:34;;;;;;;0.50;0.10;;;8.00;99.90;;;;;;4825241;29;20463;-73
2023/01/15 14:10:09;;;;;;;0.50;0.10;;;8.00;99.90;;;;;;4823072;29;20436;-72
2023/01/15 14:12:48;;;;;;;0.50;0.10;;;8.20;99.90;;;;;;4825946;29;21011;-72
2023/01/15 14:15:27;;;;;;;0.50;0.10;;;8.20;99.90;;;;;;4825605;29;21004;-72
2023/01/15 14:18:14;;;;;;;0.50;0.10;;;8.20;99.90;;;;;;4810887;29;20461;-72
2023/01/15 14:20:59;;;;;;;0.50;0.10;;;8.30;99.90;;;;;;4821823;29;20494;-72
2023/01/15 14:23:52;;;;;;;0.50;0.30;;;8.30;99.90;;;;;;4825763;29;20452;-73
2023/01/15 14:26:31;;;;;;;0.50;0.10;;;8.30;99.90;;;;;;4825753;29;20546;-71
2023/01/15 14:29:10;;;;;;;0.50;0.10;;;8.30;99.90;;;;;;4810346;29;20548;-71
2023/01/15 14:31:49;;;;;;;0.50;0.10;;;8.30;99.90;;;;;;4794980;29;20461;-71
2023/01/15 14:34:20;;;;;;;8.53;1.13;;;8.30;99.90;;;;;;4825110;29;20502;-70
2023/01/15 14:36:56;;;;;;;1.30;0.97;;;8.30;99.90;;;;;;4819681;29;20512;-71
2023/01/15 14:39:36;;;;;;;0.50;0.10;;;8.30;99.90;;;;;;4806782;29;20966;-71
2023/01/15 14:44:59;;;;;;;0.50;0.10;;;8.30;99.90;;;;;;4818794;29;20481;-71
2023/01/15 14:47:35;;;;;;;0.50;0.10;;;8.30;99.90;;;;;;4810136;29;20458;-73
2023/01/15 14:50:24;;;;;;;0.50;0.10;;;8.30;99.90;;;;;;4803583;29;20506;-71
2023/01/15 14:52:54;;;;;;;0.50;0.10;;;8.30;99.90;;;;;;4802203;29;21041;-73
2023/01/15 14:55:22;;;;;;;0.50;0.10;;;8.30;99.90;;;;;;4817428;29;20484;-69
2023/01/15 14:57:58;;;;;;;0.50;0.10;;;8.30;99.90;;;;;;4823992;29;20453;-72
2023/01/15 15:00:33;;;;;;;0.50;0.27;;;8.10;99.90;;;;;;4824371;29;20472;-70
2023/01/15 15:03:16;;;;;;;0.50;0.10;;;8.10;99.90;;;;;;4815276;29;20492;-70
2023/01/15 15:05:45;;;;;;;0.50;0.10;;;8.20;99.90;;;;;;4819952;29;20472;-73
2023/01/15 15:08:15;;;;;;;0.50;0.10;;;8.20;99.90;;;;;;4821763;29;20468;-72
2023/01/15 15:10:45;;;;;;;0.50;0.10;;;8.10;99.90;;;;;;4824283;29;20460;-70
2023/01/15 15:13:19;;;;;;;0.50;0.10;;;8.10;99.90;;;;;;4825280;29;21024;-71
2023/01/15 15:15:54;;;;;;;0.50;0.10;;;8.10;99.90;;;;;;4824304;29;20996;-70
2023/01/15 15:18:31;;;;;;;0.50;0.10;;;8.10;99.90;;;;;;4824743;29;20515;-72
2023/01/15 15:21:06;;;;;;;0.50;0.10;;;8.10;99.90;;;;;;4794380;29;20466;-72
2023/01/15 15:23:39;;;;;;;0.50;0.20;;;8.10;99.90;;;;;;4807864;29;20496;-72
2023/01/15 15:26:21;;;;;;;0.50;0.10;;;8.00;99.90;;;;;;4806377;29;21070;-70
2023/01/15 15:28:59;;;;;;;0.60;0.30;;;8.10;99.90;;;;;;4805876;29;20454;-70
2023/01/15 15:31:31;;;;;;;3.60;0.20;;;8.00;99.90;;;;;;4806027;29;20527;-71
2023/01/15 15:34:00;;;;;;;0.50;0.10;;;7.80;99.90;;;;;;4807583;29;20485;-71
2023/01/15 15:36:32;;;;;;;0.50;0.10;;;7.80;99.90;;;;;;4816088;29;20541;-71
2023/01/15 15:39:03;;;;;;;0.50;0.10;;;7.90;99.90;;;;;;4817795;29;20450;-72
2023/01/15 15:50:19;;;;;;;0.50;0.10;;;8.00;99.90;;;;;;4807146;29;20469;-71
2023/01/15 15:52:49;;;;;;;3.37;0.33;;;8.00;99.90;;;;;;4789396;30;20494;-72
2023/01/15 15:55:17;;;;;;;0.50;0.10;;;7.90;99.90;;;;;;4804084;29;20474;-71
2023/01/15 15:57:47;;;;;;;0.50;0.10;;;7.90;99.90;;;;;;4807503;29;20985;-73
2023/01/15 16:00:19;;;;;;;0.50;0.20;;;7.90;99.90;;;;;;4807904;29;20454;-72
2023/01/15 16:02:47;;;;;;;0.50;0.10;;;7.90;99.90;;;;;;4798137;29;20493;-72
2023/01/15 16:05:24;;;;;;;0.50;0.20;;;7.90;99.90;;;;;;4807433;29;20923;-72
2023/01/15 16:07:53;;;;;;;0.90;0.30;;;7.90;99.90;;;;;;4808139;29;20458;-72
2023/01/15 16:10:29;;;;;;;0.50;0.10;;;7.90;99.90;;;;;;4825452;29;20481;-70
2023/01/15 16:13:01;;;;;;;0.50;0.10;;;7.90;99.90;;;;;;4824005;29;20517;-72
2023/01/15 16:15:32;;;;;;;0.80;0.30;;;7.90;99.90;;;;;;4824366;29;20485;-72
2023/01/15 16:18:02;;;;;;;0.50;0.10;;;7.80;99.90;;;;;;4824298;29;20461;-72
2023/01/15 16:20:33;;;;;;;0.50;0.10;;;7.90;99.90;;;;;;4823662;29;20537;-72
2023/01/15 16:23:02;;;;;;;0.50;0.20;;;7.70;99.90;;;;;;4824574;29;20446;-72
2023/01/15 16:25:34;;;;;;;0.50;0.10;;;7.60;99.90;;;;;;4816599;29;20492;-73
2023/01/15 16:28:03;;;;;;;0.50;0.10;;;7.70;99.90;;;;;;4813606;29;20465;-72
2023/01/15 16:30:32;;;;;;;0.50;0.10;;;7.70;99.90;;;;;;4808540;29;20456;-72
2023/01/15 16:33:01;;;;;;;0.50;0.10;;;7.70;99.90;;;;;;4806333;29;20494;-72
2023/01/15 16:35:34;;;;;;;10.63;0.60;;;7.70;99.90;;;;;;4809334;29;20482;-71
2023/01/15 16:38:04;;;;;;;0.50;0.10;;;7.60;99.90;;;;;;4805464;29;20465;-72
2023/01/15 16:40:34;;;;;;;0.60;0.30;;;7.60;99.90;;;;;;4805816;29;20465;-71
2023/01/15 16:43:05;;;;;;;0.50;0.20;;;7.70;99.90;;;;;;4805622;29;20462;-70
2023/01/15 16:45:35;;;;;;;0.60;0.40;;;;;;;;;;4805521;29;20474;-71
2023/01/15 16:48:24;;;;;;;0.70;0.40;;;7.50;99.90;;;;;;4805506;29;20463;-73
2023/01/15 16:50:53;;;;;;;0.50;0.20;;;7.40;99.90;;;;;;4810592;29;20468;-70
2023/01/15 16:53:38;;;;;;;0.50;0.10;;;7.30;99.90;;;;;;4824975;29;20492;-71
2023/01/15 16:56:25;;;;;;;0.50;0.20;;;7.40;99.90;;;;;;4814131;29;20478;-72
2023/01/15 16:58:53;;;;;;;0.50;0.10;;;;;;;;;;4816304;29;20546;-75
2023/01/15 17:01:36;;;;;;;0.50;0.10;;;6.60;99.90;;;;;;4818172;29;20469;-71
2023/01/15 17:04:19;;;;;;;2.00;0.53;;;7.40;99.90;;;;;;4789146;29;20451;-72
2023/01/15 17:06:57;;;;;;;0.60;0.20;;;7.30;99.90;;;;;;4791351;30;20462;-71
2023/01/15 17:09:25;;;;;;;0.50;0.10;;;7.30;99.90;;;;;;4819098;29;20449;-73
2023/01/15 17:11:55;;;;;;;0.50;0.20;;;7.20;99.90;;;;;;4830844;29;20453;-72
2023/01/15 17:14:26;;;;;;;0.50;0.10;;;7.20;99.90;;;;;;4829479;29;20554;-72
2023/01/15 17:17:15;;;;;;;0.87;0.27;;;7.20;99.90;;;;;;4842175;23;20505;-73
2023/01/15 17:19:43;;;;;;;3.10;0.33;;;7.20;99.90;;;;;;4829087;29;20457;-74
2023/01/15 17:22:16;;;;;;;0.60;0.30;;;7.20;99.90;;;;;;4830739;29;20461;-74
2023/01/15 17:24:48;;;;;;;0.50;0.20;;;7.20;99.90;;;;;;4830577;29;20449;-73
2023/01/15 17:27:16;;;;;;;0.70;0.60;;;7.20;99.90;;;;;;4816896;29;20470;-72
2023/01/15 17:29:44;;;;;;;0.90;0.30;;;7.30;99.90;;;;;;4816661;29;20461;-72
2023/01/15 17:32:15;;;;;;;0.50;0.13;;;7.10;99.90;;;;;;4816135;29;20458;-74
2023/01/15 17:34:43;;;;;;;0.50;0.10;;;7.10;99.90;;;;;;4814465;29;20492;-73
2023/01/15 17:37:12;;;;;;;0.63;0.30;;;7.10;99.90;;;;;;4811764;29;20481;-72
2023/01/15 17:39:40;;;;;;;0.50;0.10;;;7.00;99.90;;;;;;4812603;29;20466;-73
2023/01/15 17:42:13;;;;;;;0.50;0.10;;;7.00;99.90;;;;;;4811271;29;20465;-74
2023/01/15 17:44:42;;;;;;;1.27;0.30;;;7.00;99.90;;;;;;4810982;29;20469;-73
2023/01/15 17:47:11;;;;;;;0.50;0.10;;;7.00;99.90;;;;;;4808488;29;20486;-74
2023/01/15 17:49:39;;;;;;;0.50;0.10;;;7.00;99.90;;;;;;4808310;29;20462;-74
2023/01/15 17:52:12;;;;;;;0.50;0.10;;;7.00;99.90;;;;;;4809358;29;20517;-73
2023/01/15 18:05:47;;;;;;;0.50;0.10;;;6.60;99.90;;;;;;4813549;29;20493;-73
2023/01/15 18:08:17;;;;;;;0.60;0.30;;;6.60;99.90;;;;;;4811742;29;20450;-73
2023/01/15 18:10:46;;;;;;;0.50;0.20;;;6.60;99.90;;;;;;4811251;29;20462;-74
2023/01/15 18:13:14;;;;;;;0.60;0.40;;;6.60;99.90;;;;;;4822121;29;20465;-71
2023/01/15 18:15:42;;;;;;;0.80;0.37;;;6.70;99.90;;;;;;4821037;29;20510;-72
2023/01/15 18:18:10;;;;;;;0.50;0.30;;;6.70;99.90;;;;;;4813493;29;20574;-72
2023/01/15 18:20:38;;;;;;;3.23;0.77;;;6.70;99.90;;;;;;4811099;29;20485;-73
2023/01/15 18:23:06;;;;;;;0.50;0.10;;;6.60;99.90;;;;;;4817183;29;20461;-72
2023/01/15 18:25:34;;;;;;;0.70;0.20;;;6.60;99.90;;;;;;4811859;29;20526;-72
2023/01/15 18:28:03;;;;;;;1.60;1.50;;;6.60;99.90;;;;;;4810264;29;20469;-72
2023/01/15 18:30:31;;;;;;;0.50;0.20;;;6.60;99.90;;;;;;4810475;29;20454;-73